Terminal Aerodrome Forecast
Issued by NWS Charleston, WV

Current Version | Previous Version | Graphics & Text | Print | Product List | Glossary On
Versions: 1 2 3 4 5 6 7 8 9 10 11 12 13 14 15 16 17 18 19 20 21 22 23 24 25 26 27 28
000
FTUS41 KRLX 221744 AAA
TAFCRW
TAF AMD
KCRW 221744Z 2218/2318 23009G17KT P6SM VCTS BKN050CB
      TEMPO 2222/2224 4SM TSRA BR OVC025CB
     FM230000 22007KT 4SM +SHRA BR VCTS OVC035CB
      TEMPO 2300/2303 2SM +TSRA BR OVC015CB
     FM230500 00000KT P6SM OVC025
     FM230800 00000KT 4SM BR OVC008
     FM231000 VRB03KT 2SM BR SCT001 OVC015
     FM231300 VRB03KT P6SM BKN025
     FM231500 VRB03KT P6SM SCT025=

USA.gov is the U.S. government's official web portal to all federal, state and local government web resources and services.